sensor_id;sensor_type;location;lat;lon;timestamp;P1;durP1;ratioP1;P2;durP2;ratioP2
34960;SDS011;30789;52.030;7.110;2023-03-05T00:00:49;4.65;;;1.42;;
34960;SDS011;30789;52.030;7.110;2023-03-05T00:03:15;7.38;;;2.03;;
34960;SDS011;30789;52.030;7.110;2023-03-05T00:05:42;7.05;;;1.77;;
34960;SDS011;30789;52.030;7.110;2023-03-05T00:08:09;3.22;;;1.25;;
34960;SDS011;30789;52.030;7.110;2023-03-05T00:10:36;3.92;;;1.40;;
34960;SDS011;30789;52.030;7.110;2023-03-05T00:13:02;6.60;;;1.58;;
34960;SDS011;30789;52.030;7.110;2023-03-05T00:15:28;4.63;;;1.73;;
34960;SDS011;30789;52.030;7.110;2023-03-05T00:17:54;7.85;;;2.00;;
34960;SDS011;30789;52.030;7.110;2023-03-05T00:20:21;5.53;;;1.95;;
34960;SDS011;30789;52.030;7.110;2023-03-05T00:22:47;8.50;;;1.77;;
34960;SDS011;30789;52.030;7.110;2023-03-05T00:25:15;4.93;;;1.77;;
34960;SDS011;30789;52.030;7.110;2023-03-05T00:27:41;8.07;;;1.77;;
34960;SDS011;30789;52.030;7.110;2023-03-05T00:30:08;5.50;;;1.10;;
34960;SDS011;30789;52.030;7.110;2023-03-05T00:32:34;6.60;;;2.30;;
34960;SDS011;30789;52.030;7.110;2023-03-05T00:35:00;15.70;;;1.95;;
34960;SDS011;30789;52.030;7.110;2023-03-05T00:37:27;5.75;;;1.95;;
34960;SDS011;30789;52.030;7.110;2023-03-05T00:39:53;8.57;;;2.13;;
34960;SDS011;30789;52.030;7.110;2023-03-05T00:42:21;6.05;;;1.60;;
34960;SDS011;30789;52.030;7.110;2023-03-05T00:44:47;5.35;;;1.60;;
34960;SDS011;30789;52.030;7.110;2023-03-05T00:47:13;8.25;;;1.67;;
34960;SDS011;30789;52.030;7.110;2023-03-05T00:49:42;8.52;;;1.35;;
34960;SDS011;30789;52.030;7.110;2023-03-05T00:52:08;6.47;;;1.48;;
34960;SDS011;30789;52.030;7.110;2023-03-05T00:54:34;2.58;;;1.55;;
34960;SDS011;30789;52.030;7.110;2023-03-05T00:57:01;8.18;;;2.20;;
34960;SDS011;30789;52.030;7.110;2023-03-05T00:59:31;8.07;;;1.90;;
34960;SDS011;30789;52.030;7.110;2023-03-05T01:01:57;5.97;;;2.03;;
34960;SDS011;30789;52.030;7.110;2023-03-05T01:04:23;5.18;;;1.63;;
34960;SDS011;30789;52.030;7.110;2023-03-05T01:06:49;7.55;;;1.50;;
34960;SDS011;30789;52.030;7.110;2023-03-05T01:09:16;5.22;;;1.52;;
34960;SDS011;30789;52.030;7.110;2023-03-05T01:11:42;3.53;;;1.45;;
34960;SDS011;30789;52.030;7.110;2023-03-05T01:14:08;6.25;;;1.75;;
34960;SDS011;30789;52.030;7.110;2023-03-05T01:16:36;6.78;;;1.75;;
34960;SDS011;30789;52.030;7.110;2023-03-05T01:19:02;7.45;;;1.63;;
34960;SDS011;30789;52.030;7.110;2023-03-05T01:21:28;8.95;;;1.92;;
34960;SDS011;30789;52.030;7.110;2023-03-05T01:23:55;7.00;;;1.63;;
34960;SDS011;30789;52.030;7.110;2023-03-05T01:26:21;2.05;;;1.08;;
34960;SDS011;30789;52.030;7.110;2023-03-05T01:28:47;7.72;;;1.50;;
34960;SDS011;30789;52.030;7.110;2023-03-05T01:31:13;4.40;;;0.95;;
34960;SDS011;30789;52.030;7.110;2023-03-05T01:33:41;4.38;;;1.58;;
34960;SDS011;30789;52.030;7.110;2023-03-05T01:36:08;2.13;;;1.10;;
34960;SDS011;30789;52.030;7.110;2023-03-05T01:38:37;4.10;;;1.15;;
34960;SDS011;30789;52.030;7.110;2023-03-05T01:41:03;5.30;;;1.60;;
34960;SDS011;30789;52.030;7.110;2023-03-05T01:43:29;7.55;;;1.50;;
34960;SDS011;30789;52.030;7.110;2023-03-05T01:48:43;4.90;;;1.17;;
34960;SDS011;30789;52.030;7.110;2023-03-05T01:51:10;6.07;;;1.73;;
34960;SDS011;30789;52.030;7.110;2023-03-05T01:53:37;4.63;;;1.45;;
34960;SDS011;30789;52.030;7.110;2023-03-05T01:56:03;7.72;;;1.42;;
34960;SDS011;30789;52.030;7.110;2023-03-05T01:58:30;6.65;;;1.77;;
34960;SDS011;30789;52.030;7.110;2023-03-05T02:00:56;4.43;;;1.45;;
34960;SDS011;30789;52.030;7.110;2023-03-05T02:03:23;6.38;;;1.40;;
34960;SDS011;30789;52.030;7.110;2023-03-05T02:05:51;5.07;;;1.20;;
34960;SDS011;30789;52.030;7.110;2023-03-05T02:08:18;5.53;;;1.55;;
34960;SDS011;30789;52.030;7.110;2023-03-05T02:10:45;4.85;;;1.55;;
34960;SDS011;30789;52.030;7.110;2023-03-05T02:13:13;3.35;;;1.15;;
34960;SDS011;30789;52.030;7.110;2023-03-05T02:15:41;8.35;;;1.70;;
34960;SDS011;30789;52.030;7.110;2023-03-05T02:18:08;3.78;;;1.33;;
34960;SDS011;30789;52.030;7.110;2023-03-05T02:20:42;6.20;;;2.10;;
34960;SDS011;30789;52.030;7.110;2023-03-05T02:23:10;5.18;;;1.33;;
34960;SDS011;30789;52.030;7.110;2023-03-05T02:25:36;4.38;;;1.25;;
34960;SDS011;30789;52.030;7.110;2023-03-05T02:28:05;3.70;;;0.82;;
34960;SDS011;30789;52.030;7.110;2023-03-05T02:30:32;3.55;;;1.52;;
34960;SDS011;30789;52.030;7.110;2023-03-05T02:32:59;5.70;;;1.63;;
34960;SDS011;30789;52.030;7.110;2023-03-05T02:35:25;7.60;;;1.85;;
34960;SDS011;30789;52.030;7.110;2023-03-05T02:37:52;5.38;;;1.20;;
34960;SDS011;30789;52.030;7.110;2023-03-05T02:40:19;7.63;;;1.85;;
34960;SDS011;30789;52.030;7.110;2023-03-05T02:42:46;3.17;;;1.08;;
34960;SDS011;30789;52.030;7.110;2023-03-05T02:45:13;5.80;;;1.90;;
34960;SDS011;30789;52.030;7.110;2023-03-05T02:47:40;7.78;;;1.25;;
34960;SDS011;30789;52.030;7.110;2023-03-05T02:50:07;5.32;;;1.40;;
34960;SDS011;30789;52.030;7.110;2023-03-05T02:52:33;4.38;;;1.45;;
34960;SDS011;30789;52.030;7.110;2023-03-05T02:55:00;6.13;;;1.00;;
34960;SDS011;30789;52.030;7.110;2023-03-05T02:57:27;4.15;;;0.98;;
34960;SDS011;30789;52.030;7.110;2023-03-05T02:59:53;6.60;;;1.38;;
34960;SDS011;30789;52.030;7.110;2023-03-05T03:02:20;5.35;;;1.23;;
34960;SDS011;30789;52.030;7.110;2023-03-05T03:04:46;2.25;;;1.40;;
34960;SDS011;30789;52.030;7.110;2023-03-05T03:07:12;5.85;;;1.63;;
34960;SDS011;30789;52.030;7.110;2023-03-05T03:09:39;2.40;;;1.17;;
34960;SDS011;30789;52.030;7.110;2023-03-05T03:12:07;10.85;;;1.45;;
34960;SDS011;30789;52.030;7.110;2023-03-05T03:14:35;2.70;;;1.10;;
34960;SDS011;30789;52.030;7.110;2023-03-05T03:17:03;3.22;;;0.98;;
34960;SDS011;30789;52.030;7.110;2023-03-05T03:19:29;2.47;;;0.85;;
34960;SDS011;30789;52.030;7.110;2023-03-05T03:21:56;4.32;;;1.52;;
34960;SDS011;30789;52.030;7.110;2023-03-05T03:24:22;4.13;;;1.15;;
34960;SDS011;30789;52.030;7.110;2023-03-05T03:26:48;3.03;;;1.08;;
34960;SDS011;30789;52.030;7.110;2023-03-05T03:29:15;6.88;;;1.63;;
34960;SDS011;30789;52.030;7.110;2023-03-05T03:31:43;3.35;;;1.15;;
34960;SDS011;30789;52.030;7.110;2023-03-05T03:34:09;2.83;;;1.17;;
34960;SDS011;30789;52.030;7.110;2023-03-05T03:36:36;3.40;;;1.65;;
34960;SDS011;30789;52.030;7.110;2023-03-05T03:39:02;2.90;;;1.10;;
34960;SDS011;30789;52.030;7.110;2023-03-05T03:41:30;2.65;;;1.08;;
34960;SDS011;30789;52.030;7.110;2023-03-05T03:43:56;5.32;;;1.52;;
34960;SDS011;30789;52.030;7.110;2023-03-05T03:46:22;5.20;;;1.33;;
34960;SDS011;30789;52.030;7.110;2023-03-05T03:48:50;2.42;;;0.93;;
34960;SDS011;30789;52.030;7.110;2023-03-05T03:51:16;2.72;;;1.17;;
34960;SDS011;30789;52.030;7.110;2023-03-05T03:53:43;4.32;;;1.02;;
34960;SDS011;30789;52.030;7.110;2023-03-05T03:56:09;2.58;;;0.98;;
34960;SDS011;30789;52.030;7.110;2023-03-05T03:58:35;3.67;;;1.00;;
34960;SDS011;30789;52.030;7.110;2023-03-05T04:01:02;6.78;;;1.17;;
34960;SDS011;30789;52.030;7.110;2023-03-05T04:03:28;3.92;;;1.20;;
34960;SDS011;30789;52.030;7.110;2023-03-05T04:05:56;6.22;;;1.70;;
34960;SDS011;30789;52.030;7.110;2023-03-05T04:08:22;2.50;;;1.00;;
34960;SDS011;30789;52.030;7.110;2023-03-05T04:10:48;3.90;;;0.98;;
34960;SDS011;30789;52.030;7.110;2023-03-05T04:13:14;3.10;;;1.17;;
34960;SDS011;30789;52.030;7.110;2023-03-05T04:15:41;4.68;;;1.27;;
34960;SDS011;30789;52.030;7.110;2023-03-05T04:18:08;4.88;;;1.20;;
34960;SDS011;30789;52.030;7.110;2023-03-05T04:20:34;2.55;;;1.13;;
34960;SDS011;30789;52.030;7.110;2023-03-05T04:23:02;5.75;;;1.73;;
34960;SDS011;30789;52.030;7.110;2023-03-05T04:25:29;3.72;;;0.90;;
34960;SDS011;30789;52.030;7.110;2023-03-05T04:27:55;7.25;;;0.90;;
34960;SDS011;30789;52.030;7.110;2023-03-05T04:30:21;3.10;;;1.08;;
34960;SDS011;30789;52.030;7.110;2023-03-05T04:32:47;3.50;;;1.42;;
34960;SDS011;30789;52.030;7.110;2023-03-05T04:35:14;3.35;;;1.00;;
34960;SDS011;30789;52.030;7.110;2023-03-05T04:37:40;3.05;;;0.80;;
34960;SDS011;30789;52.030;7.110;2023-03-05T04:40:08;10.52;;;1.48;;
34960;SDS011;30789;52.030;7.110;2023-03-05T04:42:35;5.38;;;1.55;;
34960;SDS011;30789;52.030;7.110;2023-03-05T04:45:02;3.05;;;1.27;;
34960;SDS011;30789;52.030;7.110;2023-03-05T04:47:28;1.85;;;0.70;;
34960;SDS011;30789;52.030;7.110;2023-03-05T04:49:54;6.10;;;1.55;;
34960;SDS011;30789;52.030;7.110;2023-03-05T04:52:21;5.07;;;1.10;;
34960;SDS011;30789;52.030;7.110;2023-03-05T04:54:47;8.15;;;1.60;;
34960;SDS011;30789;52.030;7.110;2023-03-05T04:57:15;1.48;;;1.00;;
34960;SDS011;30789;52.030;7.110;2023-03-05T04:59:41;5.50;;;1.33;;
34960;SDS011;30789;52.030;7.110;2023-03-05T05:02:07;1.00;;;0.60;;
34960;SDS011;30789;52.030;7.110;2023-03-05T05:04:34;7.07;;;1.30;;
34960;SDS011;30789;52.030;7.110;2023-03-05T05:07:00;3.72;;;1.92;;
34960;SDS011;30789;52.030;7.110;2023-03-05T05:09:27;4.43;;;1.10;;
34960;SDS011;30789;52.030;7.110;2023-03-05T05:11:53;4.40;;;1.10;;
34960;SDS011;30789;52.030;7.110;2023-03-05T05:14:21;4.85;;;1.08;;
34960;SDS011;30789;52.030;7.110;2023-03-05T05:16:47;5.28;;;1.33;;
34960;SDS011;30789;52.030;7.110;2023-03-05T05:19:13;2.20;;;1.10;;
34960;SDS011;30789;52.030;7.110;2023-03-05T05:21:39;1.23;;;0.95;;
34960;SDS011;30789;52.030;7.110;2023-03-05T05:24:06;3.90;;;1.27;;
34960;SDS011;30789;52.030;7.110;2023-03-05T05:26:32;5.05;;;1.77;;
34960;SDS011;30789;52.030;7.110;2023-03-05T05:28:59;1.58;;;0.90;;
34960;SDS011;30789;52.030;7.110;2023-03-05T05:31:26;1.35;;;1.25;;
34960;SDS011;30789;52.030;7.110;2023-03-05T05:33:52;5.05;;;1.17;;
34960;SDS011;30789;52.030;7.110;2023-03-05T05:36:19;2.55;;;1.20;;
34960;SDS011;30789;52.030;7.110;2023-03-05T05:38:46;4.40;;;1.20;;
34960;SDS011;30789;52.030;7.110;2023-03-05T05:41:13;3.42;;;1.40;;
34960;SDS011;30789;52.030;7.110;2023-03-05T05:43:40;2.55;;;1.52;;
34960;SDS011;30789;52.030;7.110;2023-03-05T05:46:07;9.50;;;1.48;;
34960;SDS011;30789;52.030;7.110;2023-03-05T05:48:35;6.05;;;1.15;;
34960;SDS011;30789;52.030;7.110;2023-03-05T05:51:04;4.38;;;1.20;;
34960;SDS011;30789;52.030;7.110;2023-03-05T05:53:30;6.45;;;1.40;;
34960;SDS011;30789;52.030;7.110;2023-03-05T05:55:56;5.38;;;1.02;;
34960;SDS011;30789;52.030;7.110;2023-03-05T05:58:22;5.28;;;1.63;;
34960;SDS011;30789;52.030;7.110;2023-03-05T06:00:49;5.32;;;1.17;;
34960;SDS011;30789;52.030;7.110;2023-03-05T06:03:15;4.88;;;1.58;;
34960;SDS011;30789;52.030;7.110;2023-03-05T06:05:42;4.72;;;1.42;;
34960;SDS011;30789;52.030;7.110;2023-03-05T06:08:09;3.38;;;1.25;;
34960;SDS011;30789;52.030;7.110;2023-03-05T06:10:35;4.47;;;1.33;;
34960;SDS011;30789;52.030;7.110;2023-03-05T06:13:01;2.67;;;1.48;;
34960;SDS011;30789;52.030;7.110;2023-03-05T06:15:28;5.60;;;1.45;;
34960;SDS011;30789;52.030;7.110;2023-03-05T06:17:54;8.95;;;2.08;;
34960;SDS011;30789;52.030;7.110;2023-03-05T06:20:20;5.53;;;1.50;;
34960;SDS011;30789;52.030;7.110;2023-03-05T06:22:48;3.90;;;1.50;;
34960;SDS011;30789;52.030;7.110;2023-03-05T06:25:15;6.07;;;1.67;;
34960;SDS011;30789;52.030;7.110;2023-03-05T06:27:41;6.15;;;1.45;;
34960;SDS011;30789;52.030;7.110;2023-03-05T06:30:09;3.95;;;1.45;;
34960;SDS011;30789;52.030;7.110;2023-03-05T06:32:35;6.68;;;2.10;;
34960;SDS011;30789;52.030;7.110;2023-03-05T06:35:01;5.53;;;2.17;;
34960;SDS011;30789;52.030;7.110;2023-03-05T06:37:28;3.45;;;2.15;;
34960;SDS011;30789;52.030;7.110;2023-03-05T06:39:55;6.82;;;2.22;;
34960;SDS011;30789;52.030;7.110;2023-03-05T06:42:22;4.85;;;1.70;;
34960;SDS011;30789;52.030;7.110;2023-03-05T06:44:48;2.40;;;1.50;;
34960;SDS011;30789;52.030;7.110;2023-03-05T06:47:14;4.20;;;1.73;;
34960;SDS011;30789;52.030;7.110;2023-03-05T06:49:40;7.22;;;2.17;;
34960;SDS011;30789;52.030;7.110;2023-03-05T06:52:07;6.10;;;2.38;;
34960;SDS011;30789;52.030;7.110;2023-03-05T06:54:34;5.85;;;2.03;;
34960;SDS011;30789;52.030;7.110;2023-03-05T06:57:02;2.78;;;1.98;;
34960;SDS011;30789;52.030;7.110;2023-03-05T06:59:28;3.50;;;1.83;;
34960;SDS011;30789;52.030;7.110;2023-03-05T07:01:55;3.60;;;1.77;;
34960;SDS011;30789;52.030;7.110;2023-03-05T07:04:21;6.40;;;2.10;;
34960;SDS011;30789;52.030;7.110;2023-03-05T07:06:48;4.38;;;1.52;;
34960;SDS011;30789;52.030;7.110;2023-03-05T07:09:14;3.58;;;1.92;;
34960;SDS011;30789;52.030;7.110;2023-03-05T07:11:41;3.85;;;1.92;;
34960;SDS011;30789;52.030;7.110;2023-03-05T07:14:08;2.53;;;1.55;;
34960;SDS011;30789;52.030;7.110;2023-03-05T07:16:35;3.58;;;1.67;;
34960;SDS011;30789;52.030;7.110;2023-03-05T07:19:02;2.30;;;1.63;;
34960;SDS011;30789;52.030;7.110;2023-03-05T07:21:29;4.75;;;1.90;;
34960;SDS011;30789;52.030;7.110;2023-03-05T07:23:56;2.58;;;1.45;;
34960;SDS011;30789;52.030;7.110;2023-03-05T07:26:23;4.25;;;1.50;;
34960;SDS011;30789;52.030;7.110;2023-03-05T07:28:49;3.58;;;1.67;;
34960;SDS011;30789;52.030;7.110;2023-03-05T07:31:17;4.43;;;1.77;;
34960;SDS011;30789;52.030;7.110;2023-03-05T07:33:44;3.20;;;1.60;;
34960;SDS011;30789;52.030;7.110;2023-03-05T07:36:10;2.58;;;1.77;;
34960;SDS011;30789;52.030;7.110;2023-03-05T07:38:37;3.92;;;2.08;;
34960;SDS011;30789;52.030;7.110;2023-03-05T07:41:04;2.45;;;1.65;;
34960;SDS011;30789;52.030;7.110;2023-03-05T07:43:31;5.85;;;2.25;;
34960;SDS011;30789;52.030;7.110;2023-03-05T07:45:57;5.03;;;2.67;;
34960;SDS011;30789;52.030;7.110;2023-03-05T07:48:25;11.05;;;2.42;;
34960;SDS011;30789;52.030;7.110;2023-03-05T07:50:58;8.25;;;2.38;;
34960;SDS011;30789;52.030;7.110;2023-03-05T07:53:25;7.90;;;2.38;;
34960;SDS011;30789;52.030;7.110;2023-03-05T07:55:51;5.88;;;2.58;;
34960;SDS011;30789;52.030;7.110;2023-03-05T07:58:17;8.40;;;2.30;;
34960;SDS011;30789;52.030;7.110;2023-03-05T08:00:44;5.30;;;2.10;;
34960;SDS011;30789;52.030;7.110;2023-03-05T08:03:10;6.40;;;2.03;;
34960;SDS011;30789;52.030;7.110;2023-03-05T08:05:38;5.45;;;2.67;;
34960;SDS011;30789;52.030;7.110;2023-03-05T08:08:05;8.30;;;3.05;;
34960;SDS011;30789;52.030;7.110;2023-03-05T08:10:31;6.93;;;2.55;;
34960;SDS011;30789;52.030;7.110;2023-03-05T08:12:58;4.97;;;2.92;;
34960;SDS011;30789;52.030;7.110;2023-03-05T08:15:24;5.18;;;2.45;;
34960;SDS011;30789;52.030;7.110;2023-03-05T08:17:50;3.35;;;2.20;;
34960;SDS011;30789;52.030;7.110;2023-03-05T08:20:17;4.78;;;2.45;;
34960;SDS011;30789;52.030;7.110;2023-03-05T08:22:45;6.63;;;2.83;;
34960;SDS011;30789;52.030;7.110;2023-03-05T08:25:11;5.72;;;3.03;;
34960;SDS011;30789;52.030;7.110;2023-03-05T08:27:38;5.30;;;2.35;;
34960;SDS011;30789;52.030;7.110;2023-03-05T08:30:05;5.68;;;2.88;;
34960;SDS011;30789;52.030;7.110;2023-03-05T08:32:32;5.95;;;2.38;;
34960;SDS011;30789;52.030;7.110;2023-03-05T08:34:58;4.05;;;1.88;;
34960;SDS011;30789;52.030;7.110;2023-03-05T08:37:26;4.97;;;2.05;;
34960;SDS011;30789;52.030;7.110;2023-03-05T08:39:54;7.55;;;2.28;;
34960;SDS011;30789;52.030;7.110;2023-03-05T08:42:21;4.15;;;1.90;;
34960;SDS011;30789;52.030;7.110;2023-03-05T08:44:47;8.63;;;3.80;;
34960;SDS011;30789;52.030;7.110;2023-03-05T08:47:13;8.75;;;2.58;;
34960;SDS011;30789;52.030;7.110;2023-03-05T08:49:40;5.80;;;2.03;;
34960;SDS011;30789;52.030;7.110;2023-03-05T08:52:06;3.67;;;2.20;;
34960;SDS011;30789;52.030;7.110;2023-03-05T08:54:32;3.08;;;1.70;;
34960;SDS011;30789;52.030;7.110;2023-03-05T08:57:00;3.97;;;1.63;;
34960;SDS011;30789;52.030;7.110;2023-03-05T08:59:27;5.90;;;1.83;;
34960;SDS011;30789;52.030;7.110;2023-03-05T09:01:53;4.57;;;1.85;;
34960;SDS011;30789;52.030;7.110;2023-03-05T09:04:19;3.03;;;1.38;;
34960;SDS011;30789;52.030;7.110;2023-03-05T09:06:46;7.72;;;1.77;;
34960;SDS011;30789;52.030;7.110;2023-03-05T09:09:12;5.93;;;1.73;;
34960;SDS011;30789;52.030;7.110;2023-03-05T09:11:38;3.78;;;1.60;;
34960;SDS011;30789;52.030;7.110;2023-03-05T09:14:06;2.38;;;1.40;;
34960;SDS011;30789;52.030;7.110;2023-03-05T09:16:33;3.67;;;1.65;;
34960;SDS011;30789;52.030;7.110;2023-03-05T09:19:00;2.55;;;1.52;;
34960;SDS011;30789;52.030;7.110;2023-03-05T09:21:26;2.80;;;1.50;;
34960;SDS011;30789;52.030;7.110;2023-03-05T09:23:52;4.00;;;1.73;;
34960;SDS011;30789;52.030;7.110;2023-03-05T09:26:23;2.45;;;1.85;;
34960;SDS011;30789;52.030;7.110;2023-03-05T09:28:50;5.72;;;2.20;;
34960;SDS011;30789;52.030;7.110;2023-03-05T09:31:17;2.63;;;1.67;;
34960;SDS011;30789;52.030;7.110;2023-03-05T09:33:43;3.40;;;1.60;;
34960;SDS011;30789;52.030;7.110;2023-03-05T09:36:15;4.95;;;2.00;;
34960;SDS011;30789;52.030;7.110;2023-03-05T09:38:42;2.92;;;1.65;;
34960;SDS011;30789;52.030;7.110;2023-03-05T09:41:12;2.50;;;1.25;;
34960;SDS011;30789;52.030;7.110;2023-03-05T09:43:42;1.48;;;1.38;;
34960;SDS011;30789;52.030;7.110;2023-03-05T09:46:13;2.83;;;1.70;;
34960;SDS011;30789;52.030;7.110;2023-03-05T09:48:47;3.13;;;1.48;;
34960;SDS011;30789;52.030;7.110;2023-03-05T09:51:15;2.33;;;1.33;;
34960;SDS011;30789;52.030;7.110;2023-03-05T09:53:45;3.05;;;1.40;;
34960;SDS011;30789;52.030;7.110;2023-03-05T09:56:12;2.97;;;1.40;;
34960;SDS011;30789;52.030;7.110;2023-03-05T09:58:40;2.38;;;1.27;;
34960;SDS011;30789;52.030;7.110;2023-03-05T10:01:08;3.80;;;1.60;;
34960;SDS011;30789;52.030;7.110;2023-03-05T10:03:39;2.38;;;1.42;;
34960;SDS011;30789;52.030;7.110;2023-03-05T10:06:11;5.43;;;1.60;;
34960;SDS011;30789;52.030;7.110;2023-03-05T10:08:45;3.72;;;1.50;;
34960;SDS011;30789;52.030;7.110;2023-03-05T10:13:39;2.58;;;1.35;;
34960;SDS011;30789;52.030;7.110;2023-03-05T10:16:10;6.80;;;1.20;;
34960;SDS011;30789;52.030;7.110;2023-03-05T10:18:44;4.25;;;1.08;;
34960;SDS011;30789;52.030;7.110;2023-03-05T10:21:13;3.40;;;1.40;;
34960;SDS011;30789;52.030;7.110;2023-03-05T10:23:48;3.47;;;1.15;;
34960;SDS011;30789;52.030;7.110;2023-03-05T10:26:19;5.47;;;1.55;;
34960;SDS011;30789;52.030;7.110;2023-03-05T10:28:47;3.00;;;1.23;;
34960;SDS011;30789;52.030;7.110;2023-03-05T10:31:36;2.58;;;0.98;;
34960;SDS011;30789;52.030;7.110;2023-03-05T10:34:07;2.03;;;1.13;;
34960;SDS011;30789;52.030;7.110;2023-03-05T10:36:42;5.35;;;1.38;;
34960;SDS011;30789;52.030;7.110;2023-03-05T10:39:15;1.98;;;0.80;;
34960;SDS011;30789;52.030;7.110;2023-03-05T10:41:49;2.72;;;1.15;;
34960;SDS011;30789;52.030;7.110;2023-03-05T10:44:20;2.75;;;0.82;;
34960;SDS011;30789;52.030;7.110;2023-03-05T10:46:51;3.78;;;0.65;;
34960;SDS011;30789;52.030;7.110;2023-03-05T10:49:21;1.83;;;1.00;;
34960;SDS011;30789;52.030;7.110;2023-03-05T10:51:53;1.95;;;0.63;;
34960;SDS011;30789;52.030;7.110;2023-03-05T10:54:23;1.23;;;0.85;;
34960;SDS011;30789;52.030;7.110;2023-03-05T10:56:50;2.03;;;0.77;;
34960;SDS011;30789;52.030;7.110;2023-03-05T10:59:27;2.78;;;0.57;;
34960;SDS011;30789;52.030;7.110;2023-03-05T11:02:00;1.52;;;0.70;;
34960;SDS011;30789;52.030;7.110;2023-03-05T11:04:28;1.83;;;0.90;;
34960;SDS011;30789;52.030;7.110;2023-03-05T11:06:57;4.05;;;0.60;;
34960;SDS011;30789;52.030;7.110;2023-03-05T11:09:24;1.73;;;0.73;;
34960;SDS011;30789;52.030;7.110;2023-03-05T11:12:09;3.38;;;0.85;;
34960;SDS011;30789;52.030;7.110;2023-03-05T11:14:36;5.25;;;0.70;;
34960;SDS011;30789;52.030;7.110;2023-03-05T11:17:23;1.42;;;0.63;;
34960;SDS011;30789;52.030;7.110;2023-03-05T11:19:51;1.95;;;0.55;;
34960;SDS011;30789;52.030;7.110;2023-03-05T11:22:20;2.00;;;0.82;;
34960;SDS011;30789;52.030;7.110;2023-03-05T11:25:02;2.17;;;0.45;;
34960;SDS011;30789;52.030;7.110;2023-03-05T11:27:30;1.42;;;0.55;;
34960;SDS011;30789;52.030;7.110;2023-03-05T11:29:56;1.75;;;0.52;;
34960;SDS011;30789;52.030;7.110;2023-03-05T11:32:24;2.05;;;0.50;;
34960;SDS011;30789;52.030;7.110;2023-03-05T11:34:50;2.75;;;0.63;;
34960;SDS011;30789;52.030;7.110;2023-03-05T11:37:25;0.68;;;0.38;;
34960;SDS011;30789;52.030;7.110;2023-03-05T11:40:04;4.80;;;1.52;;
34960;SDS011;30789;52.030;7.110;2023-03-05T11:42:30;2.28;;;0.93;;
34960;SDS011;30789;52.030;7.110;2023-03-05T11:44:56;5.60;;;2.58;;
34960;SDS011;30789;52.030;7.110;2023-03-05T11:47:25;3.55;;;0.82;;
34960;SDS011;30789;52.030;7.110;2023-03-05T11:49:54;1.05;;;0.47;;
34960;SDS011;30789;52.030;7.110;2023-03-05T11:52:21;1.17;;;0.50;;
34960;SDS011;30789;52.030;7.110;2023-03-05T11:54:53;1.35;;;0.60;;
34960;SDS011;30789;52.030;7.110;2023-03-05T11:57:20;1.67;;;0.60;;
34960;SDS011;30789;52.030;7.110;2023-03-05T11:59:48;3.47;;;0.47;;
34960;SDS011;30789;52.030;7.110;2023-03-05T12:02:17;2.75;;;0.43;;
34960;SDS011;30789;52.030;7.110;2023-03-05T12:04:44;1.20;;;0.60;;
34960;SDS011;30789;52.030;7.110;2023-03-05T12:07:11;2.83;;;0.70;;
34960;SDS011;30789;52.030;7.110;2023-03-05T12:09:38;3.08;;;0.50;;
34960;SDS011;30789;52.030;7.110;2023-03-05T12:12:08;1.13;;;0.40;;
34960;SDS011;30789;52.030;7.110;2023-03-05T12:14:38;0.73;;;0.40;;
34960;SDS011;30789;52.030;7.110;2023-03-05T12:17:07;2.20;;;0.40;;
34960;SDS011;30789;52.030;7.110;2023-03-05T12:19:43;1.80;;;0.43;;
34960;SDS011;30789;52.030;7.110;2023-03-05T12:22:15;1.83;;;0.40;;
34960;SDS011;30789;52.030;7.110;2023-03-05T12:24:41;0.50;;;0.40;;
34960;SDS011;30789;52.030;7.110;2023-03-05T12:27:10;0.73;;;0.22;;
34960;SDS011;30789;52.030;7.110;2023-03-05T12:29:39;1.55;;;0.70;;
34960;SDS011;30789;52.030;7.110;2023-03-05T12:34:49;0.30;;;0.30;;
34960;SDS011;30789;52.030;7.110;2023-03-05T12:40:18;3.35;;;0.40;;
34960;SDS011;30789;52.030;7.110;2023-03-05T12:42:48;1.02;;;0.35;;
34960;SDS011;30789;52.030;7.110;2023-03-05T12:50:49;1.10;;;0.40;;
34960;SDS011;30789;52.030;7.110;2023-03-05T12:53:17;2.50;;;0.63;;
34960;SDS011;30789;52.030;7.110;2023-03-05T12:55:48;0.63;;;0.32;;
34960;SDS011;30789;52.030;7.110;2023-03-05T12:58:18;0.45;;;0.40;;
34960;SDS011;30789;52.030;7.110;2023-03-05T13:00:45;1.05;;;0.47;;
34960;SDS011;30789;52.030;7.110;2023-03-05T13:03:14;2.10;;;0.43;;
34960;SDS011;30789;52.030;7.110;2023-03-05T13:05:46;1.58;;;0.50;;
34960;SDS011;30789;52.030;7.110;2023-03-05T13:10:39;0.40;;;0.40;;
34960;SDS011;30789;52.030;7.110;2023-03-05T13:13:10;2.85;;;0.45;;
34960;SDS011;30789;52.030;7.110;2023-03-05T13:15:40;0.75;;;0.60;;
34960;SDS011;30789;52.030;7.110;2023-03-05T13:18:11;4.18;;;0.45;;
34960;SDS011;30789;52.030;7.110;2023-03-05T13:20:41;2.70;;;0.55;;
34960;SDS011;30789;52.030;7.110;2023-03-05T13:23:15;1.35;;;0.50;;
34960;SDS011;30789;52.030;7.110;2023-03-05T13:25:42;1.65;;;0.60;;
34960;SDS011;30789;52.030;7.110;2023-03-05T13:28:09;0.73;;;0.40;;
34960;SDS011;30789;52.030;7.110;2023-03-05T13:30:36;2.30;;;0.57;;
34960;SDS011;30789;52.030;7.110;2023-03-05T13:33:04;1.65;;;1.20;;
34960;SDS011;30789;52.030;7.110;2023-03-05T13:35:30;6.95;;;3.08;;
34960;SDS011;30789;52.030;7.110;2023-03-05T13:37:57;6.95;;;2.38;;
34960;SDS011;30789;52.030;7.110;2023-03-05T13:40:24;3.70;;;1.83;;
34960;SDS011;30789;52.030;7.110;2023-03-05T13:42:51;5.75;;;3.78;;
34960;SDS011;30789;52.030;7.110;2023-03-05T13:45:25;5.80;;;2.70;;
34960;SDS011;30789;52.030;7.110;2023-03-05T13:47:53;4.32;;;2.45;;
34960;SDS011;30789;52.030;7.110;2023-03-05T13:50:25;3.08;;;2.28;;
34960;SDS011;30789;52.030;7.110;2023-03-05T13:52:52;7.53;;;1.50;;
34960;SDS011;30789;52.030;7.110;2023-03-05T13:55:18;1.58;;;0.82;;
34960;SDS011;30789;52.030;7.110;2023-03-05T13:57:45;4.40;;;2.22;;
34960;SDS011;30789;52.030;7.110;2023-03-05T14:03:08;0.55;;;0.50;;
34960;SDS011;30789;52.030;7.110;2023-03-05T14:05:35;2.75;;;1.33;;
34960;SDS011;30789;52.030;7.110;2023-03-05T14:08:02;1.77;;;0.60;;
34960;SDS011;30789;52.030;7.110;2023-03-05T14:10:30;1.50;;;0.68;;
34960;SDS011;30789;52.030;7.110;2023-03-05T14:12:59;1.13;;;0.70;;
34960;SDS011;30789;52.030;7.110;2023-03-05T14:15:26;1.75;;;0.80;;
34960;SDS011;30789;52.030;7.110;2023-03-05T14:18:06;2.40;;;0.90;;
34960;SDS011;30789;52.030;7.110;2023-03-05T14:20:32;2.78;;;1.00;;
34960;SDS011;30789;52.030;7.110;2023-03-05T14:23:00;1.33;;;1.02;;
34960;SDS011;30789;52.030;7.110;2023-03-05T14:25:28;3.22;;;0.90;;
34960;SDS011;30789;52.030;7.110;2023-03-05T14:27:57;4.50;;;0.77;;
34960;SDS011;30789;52.030;7.110;2023-03-05T14:30:24;2.08;;;0.88;;
34960;SDS011;30789;52.030;7.110;2023-03-05T14:32:51;1.55;;;0.90;;
34960;SDS011;30789;52.030;7.110;2023-03-05T14:35:19;1.38;;;0.60;;
34960;SDS011;30789;52.030;7.110;2023-03-05T14:37:46;1.70;;;1.02;;
34960;SDS011;30789;52.030;7.110;2023-03-05T14:40:19;1.10;;;0.90;;
34960;SDS011;30789;52.030;7.110;2023-03-05T14:42:49;4.88;;;1.00;;
34960;SDS011;30789;52.030;7.110;2023-03-05T14:45:16;1.13;;;0.70;;
34960;SDS011;30789;52.030;7.110;2023-03-05T14:47:43;3.05;;;0.80;;
34960;SDS011;30789;52.030;7.110;2023-03-05T14:50:10;3.13;;;0.88;;
34960;SDS011;30789;52.030;7.110;2023-03-05T14:52:40;2.92;;;1.27;;
34960;SDS011;30789;52.030;7.110;2023-03-05T14:55:06;5.32;;;1.00;;
34960;SDS011;30789;52.030;7.110;2023-03-05T14:57:34;2.63;;;1.02;;
34960;SDS011;30789;52.030;7.110;2023-03-05T15:00:01;3.75;;;1.52;;
34960;SDS011;30789;52.030;7.110;2023-03-05T15:02:27;9.27;;;5.40;;
34960;SDS011;30789;52.030;7.110;2023-03-05T15:04:53;10.23;;;6.10;;
34960;SDS011;30789;52.030;7.110;2023-03-05T15:07:22;10.48;;;5.63;;
34960;SDS011;30789;52.030;7.110;2023-03-05T15:09:49;6.75;;;3.47;;
34960;SDS011;30789;52.030;7.110;2023-03-05T15:12:15;3.83;;;2.47;;